sensor_id;sensor_type;location;lat;lon;timestamp;temperature;humidity
16040;DHT22;8124;48.634;8.120;2023-02-26T00:03:21;2.30;94.70
16040;DHT22;8124;48.634;8.120;2023-02-26T00:08:24;2.40;94.80
16040;DHT22;8124;48.634;8.120;2023-02-26T00:13:29;2.40;94.70
16040;DHT22;8124;48.634;8.120;2023-02-26T00:18:33;2.30;94.50
16040;DHT22;8124;48.634;8.120;2023-02-26T00:23:36;2.30;94.50
16040;DHT22;8124;48.634;8.120;2023-02-26T00:28:41;2.30;94.50
16040;DHT22;8124;48.634;8.120;2023-02-26T00:33:44;2.40;94.60
16040;DHT22;8124;48.634;8.120;2023-02-26T00:38:56;2.40;94.50
16040;DHT22;8124;48.634;8.120;2023-02-26T00:44:02;2.50;94.60
16040;DHT22;8124;48.634;8.120;2023-02-26T00:49:17;2.30;94.40
16040;DHT22;8124;48.634;8.120;2023-02-26T00:54:23;2.20;94.30
16040;DHT22;8124;48.634;8.120;2023-02-26T00:59:27;2.10;94.40
16040;DHT22;8124;48.634;8.120;2023-02-26T01:04:31;2.20;94.60
16040;DHT22;8124;48.634;8.120;2023-02-26T01:09:35;2.10;94.60
16040;DHT22;8124;48.634;8.120;2023-02-26T01:14:40;2.10;94.70
16040;DHT22;8124;48.634;8.120;2023-02-26T01:19:46;2.00;94.90
16040;DHT22;8124;48.634;8.120;2023-02-26T01:24:55;1.90;95.10
16040;DHT22;8124;48.634;8.120;2023-02-26T01:30:04;2.00;95.50
16040;DHT22;8124;48.634;8.120;2023-02-26T01:35:12;1.90;95.70
16040;DHT22;8124;48.634;8.120;2023-02-26T01:40:54;1.90;96.00
16040;DHT22;8124;48.634;8.120;2023-02-26T01:46:09;1.90;96.40
16040;DHT22;8124;48.634;8.120;2023-02-26T01:51:15;2.00;96.90
16040;DHT22;8124;48.634;8.120;2023-02-26T01:56:19;2.00;97.00
16040;DHT22;8124;48.634;8.120;2023-02-26T02:01:24;2.00;97.40
16040;DHT22;8124;48.634;8.120;2023-02-26T02:06:29;2.00;98.00
16040;DHT22;8124;48.634;8.120;2023-02-26T02:11:33;2.00;98.50
16040;DHT22;8124;48.634;8.120;2023-02-26T02:16:42;1.70;98.70
16040;DHT22;8124;48.634;8.120;2023-02-26T02:22:05;1.80;99.10
16040;DHT22;8124;48.634;8.120;2023-02-26T02:27:18;1.70;99.50
16040;DHT22;8124;48.634;8.120;2023-02-26T02:32:28;1.70;99.90
16040;DHT22;8124;48.634;8.120;2023-02-26T02:37:36;1.50;99.90
16040;DHT22;8124;48.634;8.120;2023-02-26T02:42:43;1.40;99.90
16040;DHT22;8124;48.634;8.120;2023-02-26T02:47:55;1.30;99.90
16040;DHT22;8124;48.634;8.120;2023-02-26T02:53:02;1.40;99.90
16040;DHT22;8124;48.634;8.120;2023-02-26T02:58:09;1.40;99.90
16040;DHT22;8124;48.634;8.120;2023-02-26T03:03:20;1.60;99.90
16040;DHT22;8124;48.634;8.120;2023-02-26T03:08:29;1.50;99.90
16040;DHT22;8124;48.634;8.120;2023-02-26T03:13:33;1.50;99.90
16040;DHT22;8124;48.634;8.120;2023-02-26T03:18:53;1.50;99.90
16040;DHT22;8124;48.634;8.120;2023-02-26T03:24:01;1.30;99.90
16040;DHT22;8124;48.634;8.120;2023-02-26T03:29:13;1.50;99.90
16040;DHT22;8124;48.634;8.120;2023-02-26T03:34:23;1.40;99.90
16040;DHT22;8124;48.634;8.120;2023-02-26T03:39:33;1.40;99.90
16040;DHT22;8124;48.634;8.120;2023-02-26T03:44:46;1.30;99.90
16040;DHT22;8124;48.634;8.120;2023-02-26T03:49:55;1.40;99.90
16040;DHT22;8124;48.634;8.120;2023-02-26T03:55:04;1.50;99.90
16040;DHT22;8124;48.634;8.120;2023-02-26T04:00:48;1.00;99.90
16040;DHT22;8124;48.634;8.120;2023-02-26T04:05:53;0.90;99.90
16040;DHT22;8124;48.634;8.120;2023-02-26T04:10:58;0.80;99.90
16040;DHT22;8124;48.634;8.120;2023-02-26T04:16:03;0.60;99.90
16040;DHT22;8124;48.634;8.120;2023-02-26T04:21:11;0.60;99.90
16040;DHT22;8124;48.634;8.120;2023-02-26T04:26:14;0.60;99.90
16040;DHT22;8124;48.634;8.120;2023-02-26T04:31:20;0.50;99.90
16040;DHT22;8124;48.634;8.120;2023-02-26T04:36:24;0.40;99.90
16040;DHT22;8124;48.634;8.120;2023-02-26T04:41:28;0.30;99.90
16040;DHT22;8124;48.634;8.120;2023-02-26T04:46:31;0.40;99.90
16040;DHT22;8124;48.634;8.120;2023-02-26T04:51:40;0.50;99.90
16040;DHT22;8124;48.634;8.120;2023-02-26T04:56:43;0.80;99.90
16040;DHT22;8124;48.634;8.120;2023-02-26T05:01:46;0.70;99.90
16040;DHT22;8124;48.634;8.120;2023-02-26T05:06:50;0.70;99.90
16040;DHT22;8124;48.634;8.120;2023-02-26T05:11:54;0.60;99.90
16040;DHT22;8124;48.634;8.120;2023-02-26T05:16:57;0.50;99.90
16040;DHT22;8124;48.634;8.120;2023-02-26T05:22:02;0.60;99.90
16040;DHT22;8124;48.634;8.120;2023-02-26T05:27:04;0.50;99.90
16040;DHT22;8124;48.634;8.120;2023-02-26T05:32:10;0.50;99.90
16040;DHT22;8124;48.634;8.120;2023-02-26T05:37:15;0.50;99.90
16040;DHT22;8124;48.634;8.120;2023-02-26T05:42:17;0.50;99.90
16040;DHT22;8124;48.634;8.120;2023-02-26T05:47:20;0.60;99.90
16040;DHT22;8124;48.634;8.120;2023-02-26T05:52:24;0.50;99.90
16040;DHT22;8124;48.634;8.120;2023-02-26T05:57:27;0.50;99.90
16040;DHT22;8124;48.634;8.120;2023-02-26T06:02:33;0.50;99.90
16040;DHT22;8124;48.634;8.120;2023-02-26T06:07:38;0.50;99.90
16040;DHT22;8124;48.634;8.120;2023-02-26T06:12:41;0.40;99.90
16040;DHT22;8124;48.634;8.120;2023-02-26T06:17:44;0.50;99.90
16040;DHT22;8124;48.634;8.120;2023-02-26T06:22:48;0.40;99.90
16040;DHT22;8124;48.634;8.120;2023-02-26T06:27:51;0.40;99.90
16040;DHT22;8124;48.634;8.120;2023-02-26T06:32:54;0.40;99.90
16040;DHT22;8124;48.634;8.120;2023-02-26T06:37:58;0.30;99.90
16040;DHT22;8124;48.634;8.120;2023-02-26T06:43:01;0.30;99.90
16040;DHT22;8124;48.634;8.120;2023-02-26T06:48:04;0.30;99.90
16040;DHT22;8124;48.634;8.120;2023-02-26T06:53:08;0.40;99.90
16040;DHT22;8124;48.634;8.120;2023-02-26T06:58:11;0.30;99.90
16040;DHT22;8124;48.634;8.120;2023-02-26T07:03:16;0.30;99.90
16040;DHT22;8124;48.634;8.120;2023-02-26T07:08:20;0.20;99.90
16040;DHT22;8124;48.634;8.120;2023-02-26T07:13:24;0.20;99.90
16040;DHT22;8124;48.634;8.120;2023-02-26T07:18:27;0.20;99.90
16040;DHT22;8124;48.634;8.120;2023-02-26T07:23:33;0.20;99.90
16040;DHT22;8124;48.634;8.120;2023-02-26T07:28:39;0.20;99.90
16040;DHT22;8124;48.634;8.120;2023-02-26T07:33:43;0.30;99.90
16040;DHT22;8124;48.634;8.120;2023-02-26T07:38:47;0.30;99.90
16040;DHT22;8124;48.634;8.120;2023-02-26T07:43:50;0.20;99.90
16040;DHT22;8124;48.634;8.120;2023-02-26T07:48:53;0.30;99.90
16040;DHT22;8124;48.634;8.120;2023-02-26T07:53:57;0.20;99.90
16040;DHT22;8124;48.634;8.120;2023-02-26T07:59:00;0.20;99.90
16040;DHT22;8124;48.634;8.120;2023-02-26T08:04:03;0.30;99.90
16040;DHT22;8124;48.634;8.120;2023-02-26T08:09:07;0.30;99.90
16040;DHT22;8124;48.634;8.120;2023-02-26T08:14:10;0.40;99.90
16040;DHT22;8124;48.634;8.120;2023-02-26T08:19:13;0.40;99.90
16040;DHT22;8124;48.634;8.120;2023-02-26T08:24:17;0.50;99.90
16040;DHT22;8124;48.634;8.120;2023-02-26T08:29:21;0.40;99.90
16040;DHT22;8124;48.634;8.120;2023-02-26T08:34:24;0.30;99.90
16040;DHT22;8124;48.634;8.120;2023-02-26T08:39:28;0.30;99.90
16040;DHT22;8124;48.634;8.120;2023-02-26T08:44:33;0.40;99.90
16040;DHT22;8124;48.634;8.120;2023-02-26T08:49:36;0.40;99.90
16040;DHT22;8124;48.634;8.120;2023-02-26T08:54:40;0.40;99.90
16040;DHT22;8124;48.634;8.120;2023-02-26T08:59:43;0.50;99.90
16040;DHT22;8124;48.634;8.120;2023-02-26T09:04:46;0.50;99.90
16040;DHT22;8124;48.634;8.120;2023-02-26T09:09:50;0.80;99.90
16040;DHT22;8124;48.634;8.120;2023-02-26T09:14:53;0.80;99.90
16040;DHT22;8124;48.634;8.120;2023-02-26T09:19:59;0.90;99.90
16040;DHT22;8124;48.634;8.120;2023-02-26T09:25:04;0.80;99.90
16040;DHT22;8124;48.634;8.120;2023-02-26T09:30:09;0.90;99.90
16040;DHT22;8124;48.634;8.120;2023-02-26T09:35:12;1.00;99.90
16040;DHT22;8124;48.634;8.120;2023-02-26T09:40:24;1.30;99.90
16040;DHT22;8124;48.634;8.120;2023-02-26T09:45:31;1.10;99.90
16040;DHT22;8124;48.634;8.120;2023-02-26T09:50:40;1.00;99.90
16040;DHT22;8124;48.634;8.120;2023-02-26T09:55:46;0.90;99.90
16040;DHT22;8124;48.634;8.120;2023-02-26T10:00:56;1.10;99.90
16040;DHT22;8124;48.634;8.120;2023-02-26T10:06:24;1.30;99.90
16040;DHT22;8124;48.634;8.120;2023-02-26T10:11:34;1.30;99.90
16040;DHT22;8124;48.634;8.120;2023-02-26T10:16:42;1.20;99.90
16040;DHT22;8124;48.634;8.120;2023-02-26T10:21:57;1.00;99.90
16040;DHT22;8124;48.634;8.120;2023-02-26T10:27:08;1.20;99.90
16040;DHT22;8124;48.634;8.120;2023-02-26T10:32:20;1.20;99.90
16040;DHT22;8124;48.634;8.120;2023-02-26T10:37:35;1.20;99.90
16040;DHT22;8124;48.634;8.120;2023-02-26T10:42:46;1.10;99.90
16040;DHT22;8124;48.634;8.120;2023-02-26T10:47:55;1.20;99.90
16040;DHT22;8124;48.634;8.120;2023-02-26T10:53:00;1.20;99.90
16040;DHT22;8124;48.634;8.120;2023-02-26T10:58:10;1.40;99.90
16040;DHT22;8124;48.634;8.120;2023-02-26T11:03:16;1.20;99.90
16040;DHT22;8124;48.634;8.120;2023-02-26T11:08:24;1.10;99.90
16040;DHT22;8124;48.634;8.120;2023-02-26T11:13:31;1.00;99.90
16040;DHT22;8124;48.634;8.120;2023-02-26T11:18:40;1.00;99.90
16040;DHT22;8124;48.634;8.120;2023-02-26T11:23:45;1.00;99.90
16040;DHT22;8124;48.634;8.120;2023-02-26T11:28:53;1.20;99.90
16040;DHT22;8124;48.634;8.120;2023-02-26T11:33:59;1.10;99.90
16040;DHT22;8124;48.634;8.120;2023-02-26T11:39:06;1.20;99.90
16040;DHT22;8124;48.634;8.120;2023-02-26T11:44:13;1.40;99.90
16040;DHT22;8124;48.634;8.120;2023-02-26T11:49:48;1.50;99.90
16040;DHT22;8124;48.634;8.120;2023-02-26T11:54:56;1.60;99.90
16040;DHT22;8124;48.634;8.120;2023-02-26T12:00:17;1.90;99.90
16040;DHT22;8124;48.634;8.120;2023-02-26T12:05:20;1.90;99.90
16040;DHT22;8124;48.634;8.120;2023-02-26T12:10:42;2.00;99.90
16040;DHT22;8124;48.634;8.120;2023-02-26T12:15:55;2.00;99.90
16040;DHT22;8124;48.634;8.120;2023-02-26T12:21:09;1.90;99.90
16040;DHT22;8124;48.634;8.120;2023-02-26T12:26:24;2.00;99.90
16040;DHT22;8124;48.634;8.120;2023-02-26T12:37:34;1.90;99.90
16040;DHT22;8124;48.634;8.120;2023-02-26T12:42:50;2.00;99.90
16040;DHT22;8124;48.634;8.120;2023-02-26T12:48:07;2.00;99.90
16040;DHT22;8124;48.634;8.120;2023-02-26T12:53:38;2.00;99.90
16040;DHT22;8124;48.634;8.120;2023-02-26T12:59:11;1.80;99.90
16040;DHT22;8124;48.634;8.120;2023-02-26T13:04:56;1.70;99.90
16040;DHT22;8124;48.634;8.120;2023-02-26T13:10:13;1.70;99.90
16040;DHT22;8124;48.634;8.120;2023-02-26T13:15:39;1.90;99.90
16040;DHT22;8124;48.634;8.120;2023-02-26T13:20:54;2.00;99.90
16040;DHT22;8124;48.634;8.120;2023-02-26T13:26:05;1.90;99.90
16040;DHT22;8124;48.634;8.120;2023-02-26T13:37:31;1.70;99.90
16040;DHT22;8124;48.634;8.120;2023-02-26T13:42:45;1.80;99.90
16040;DHT22;8124;48.634;8.120;2023-02-26T13:48:07;1.70;99.90
16040;DHT22;8124;48.634;8.120;2023-02-26T13:59:03;1.90;99.90
16040;DHT22;8124;48.634;8.120;2023-02-26T14:04:22;2.10;99.90
16040;DHT22;8124;48.634;8.120;2023-02-26T14:09:42;2.10;99.90
16040;DHT22;8124;48.634;8.120;2023-02-26T14:15:25;1.60;99.90
16040;DHT22;8124;48.634;8.120;2023-02-26T14:20:31;1.60;99.90
16040;DHT22;8124;48.634;8.120;2023-02-26T14:26:17;2.00;99.90
16040;DHT22;8124;48.634;8.120;2023-02-26T14:31:54;2.40;99.90
16040;DHT22;8124;48.634;8.120;2023-02-26T14:37:07;2.60;99.90
16040;DHT22;8124;48.634;8.120;2023-02-26T14:42:19;2.60;99.90
16040;DHT22;8124;48.634;8.120;2023-02-26T14:47:24;2.80;99.90
16040;DHT22;8124;48.634;8.120;2023-02-26T14:52:48;2.70;99.90
16040;DHT22;8124;48.634;8.120;2023-02-26T14:58:07;2.80;99.90
16040;DHT22;8124;48.634;8.120;2023-02-26T15:03:44;2.80;99.90
16040;DHT22;8124;48.634;8.120;2023-02-26T15:09:00;2.90;99.90
16040;DHT22;8124;48.634;8.120;2023-02-26T15:14:24;2.80;99.90
16040;DHT22;8124;48.634;8.120;2023-02-26T15:19:45;2.90;99.90
16040;DHT22;8124;48.634;8.120;2023-02-26T15:24:57;2.90;99.90
16040;DHT22;8124;48.634;8.120;2023-02-26T15:30:27;2.80;99.90
16040;DHT22;8124;48.634;8.120;2023-02-26T15:36:27;2.60;99.90
16040;DHT22;8124;48.634;8.120;2023-02-26T15:42:01;2.30;99.90
16040;DHT22;8124;48.634;8.120;2023-02-26T15:47:06;2.20;99.90
16040;DHT22;8124;48.634;8.120;2023-02-26T15:52:19;2.20;99.90
16040;DHT22;8124;48.634;8.120;2023-02-26T15:57:37;2.30;99.90
16040;DHT22;8124;48.634;8.120;2023-02-26T16:03:01;2.40;99.90
16040;DHT22;8124;48.634;8.120;2023-02-26T16:08:19;2.60;99.90
16040;DHT22;8124;48.634;8.120;2023-02-26T16:19:15;2.70;99.90
16040;DHT22;8124;48.634;8.120;2023-02-26T16:24:33;2.50;99.90
16040;DHT22;8124;48.634;8.120;2023-02-26T16:29:50;2.40;99.90
16040;DHT22;8124;48.634;8.120;2023-02-26T16:35:11;2.50;99.90
16040;DHT22;8124;48.634;8.120;2023-02-26T16:40:25;2.60;99.90
16040;DHT22;8124;48.634;8.120;2023-02-26T16:45:48;2.70;99.90
16040;DHT22;8124;48.634;8.120;2023-02-26T16:50:58;2.70;99.90
16040;DHT22;8124;48.634;8.120;2023-02-26T16:56:04;2.60;99.90
16040;DHT22;8124;48.634;8.120;2023-02-26T17:01:12;2.20;99.90
16040;DHT22;8124;48.634;8.120;2023-02-26T17:06:47;1.90;99.90
16040;DHT22;8124;48.634;8.120;2023-02-26T17:12:03;2.00;99.90
16040;DHT22;8124;48.634;8.120;2023-02-26T17:17:06;1.90;99.90
16040;DHT22;8124;48.634;8.120;2023-02-26T17:22:12;2.10;99.90
16040;DHT22;8124;48.634;8.120;2023-02-26T17:27:23;2.20;99.90
16040;DHT22;8124;48.634;8.120;2023-02-26T17:32:27;2.30;99.90
16040;DHT22;8124;48.634;8.120;2023-02-26T17:37:32;2.40;99.90
16040;DHT22;8124;48.634;8.120;2023-02-26T17:42:39;2.40;99.90
16040;DHT22;8124;48.634;8.120;2023-02-26T17:47:42;2.30;99.90
16040;DHT22;8124;48.634;8.120;2023-02-26T17:53:08;2.50;99.90
16040;DHT22;8124;48.634;8.120;2023-02-26T17:58:15;2.40;99.90
16040;DHT22;8124;48.634;8.120;2023-02-26T18:03:18;2.40;99.90
16040;DHT22;8124;48.634;8.120;2023-02-26T18:08:23;2.60;99.90
16040;DHT22;8124;48.634;8.120;2023-02-26T18:13:33;2.40;99.90
16040;DHT22;8124;48.634;8.120;2023-02-26T18:18:38;2.40;99.90
16040;DHT22;8124;48.634;8.120;2023-02-26T18:23:43;2.50;99.90
16040;DHT22;8124;48.634;8.120;2023-02-26T18:28:49;2.40;99.90
16040;DHT22;8124;48.634;8.120;2023-02-26T18:33:52;2.50;99.90
16040;DHT22;8124;48.634;8.120;2023-02-26T18:38:55;2.40;99.90
16040;DHT22;8124;48.634;8.120;2023-02-26T18:44:01;2.40;99.90
16040;DHT22;8124;48.634;8.120;2023-02-26T18:49:21;2.30;99.90
16040;DHT22;8124;48.634;8.120;2023-02-26T18:54:24;2.40;99.90
16040;DHT22;8124;48.634;8.120;2023-02-26T18:59:28;2.30;99.90
16040;DHT22;8124;48.634;8.120;2023-02-26T19:04:32;2.20;99.60
16040;DHT22;8124;48.634;8.120;2023-02-26T19:09:36;2.10;98.90
16040;DHT22;8124;48.634;8.120;2023-02-26T19:14:41;2.10;98.50
16040;DHT22;8124;48.634;8.120;2023-02-26T19:19:44;2.10;98.00
16040;DHT22;8124;48.634;8.120;2023-02-26T19:24:47;2.10;97.50
16040;DHT22;8124;48.634;8.120;2023-02-26T19:29:51;2.10;97.10
16040;DHT22;8124;48.634;8.120;2023-02-26T19:34:55;2.00;96.60
16040;DHT22;8124;48.634;8.120;2023-02-26T19:39:57;2.00;96.20
16040;DHT22;8124;48.634;8.120;2023-02-26T19:45:02;1.90;96.00
16040;DHT22;8124;48.634;8.120;2023-02-26T19:50:06;1.90;95.30
16040;DHT22;8124;48.634;8.120;2023-02-26T19:55:10;2.00;95.10
16040;DHT22;8124;48.634;8.120;2023-02-26T20:00:16;1.90;94.60
16040;DHT22;8124;48.634;8.120;2023-02-26T20:05:19;1.80;94.20
16040;DHT22;8124;48.634;8.120;2023-02-26T20:10:49;1.80;93.80
16040;DHT22;8124;48.634;8.120;2023-02-26T20:15:58;1.70;93.40
16040;DHT22;8124;48.634;8.120;2023-02-26T20:21:06;1.70;93.00
16040;DHT22;8124;48.634;8.120;2023-02-26T20:26:12;1.70;92.70
16040;DHT22;8124;48.634;8.120;2023-02-26T20:31:19;1.90;92.80
16040;DHT22;8124;48.634;8.120;2023-02-26T20:36:46;1.80;92.40
16040;DHT22;8124;48.634;8.120;2023-02-26T20:41:51;1.80;92.10
16040;DHT22;8124;48.634;8.120;2023-02-26T20:46:55;1.80;91.90
16040;DHT22;8124;48.634;8.120;2023-02-26T20:51:59;1.60;91.50
16040;DHT22;8124;48.634;8.120;2023-02-26T20:57:02;1.50;91.30
16040;DHT22;8124;48.634;8.120;2023-02-26T21:02:08;1.60;91.20
16040;DHT22;8124;48.634;8.120;2023-02-26T21:07:13;1.60;91.10
16040;DHT22;8124;48.634;8.120;2023-02-26T21:12:22;1.40;90.80
16040;DHT22;8124;48.634;8.120;2023-02-26T21:17:26;1.40;90.70
16040;DHT22;8124;48.634;8.120;2023-02-26T21:22:32;1.40;90.60
16040;DHT22;8124;48.634;8.120;2023-02-26T21:27:36;1.50;90.60
16040;DHT22;8124;48.634;8.120;2023-02-26T21:32:41;1.40;90.50
16040;DHT22;8124;48.634;8.120;2023-02-26T21:37:45;1.40;90.50
16040;DHT22;8124;48.634;8.120;2023-02-26T21:42:48;1.40;90.50
16040;DHT22;8124;48.634;8.120;2023-02-26T21:47:52;1.30;90.40
16040;DHT22;8124;48.634;8.120;2023-02-26T21:52:55;1.20;90.40
16040;DHT22;8124;48.634;8.120;2023-02-26T21:57:58;1.10;90.30
16040;DHT22;8124;48.634;8.120;2023-02-26T22:03:02;1.20;90.50
16040;DHT22;8124;48.634;8.120;2023-02-26T22:08:05;1.10;90.50
16040;DHT22;8124;48.634;8.120;2023-02-26T22:13:08;1.00;90.50
16040;DHT22;8124;48.634;8.120;2023-02-26T22:18:13;1.10;90.60
16040;DHT22;8124;48.634;8.120;2023-02-26T22:23:15;1.10;90.70
16040;DHT22;8124;48.634;8.120;2023-02-26T22:28:18;0.90;90.70
16040;DHT22;8124;48.634;8.120;2023-02-26T22:33:23;1.00;90.90
16040;DHT22;8124;48.634;8.120;2023-02-26T22:38:26;1.00;91.10
16040;DHT22;8124;48.634;8.120;2023-02-26T22:43:29;0.90;91.20
16040;DHT22;8124;48.634;8.120;2023-02-26T22:48:33;0.90;91.80
16040;DHT22;8124;48.634;8.120;2023-02-26T22:53:36;0.80;91.60
16040;DHT22;8124;48.634;8.120;2023-02-26T22:58:39;0.70;91.80
16040;DHT22;8124;48.634;8.120;2023-02-26T23:03:44;0.70;92.10
16040;DHT22;8124;48.634;8.120;2023-02-26T23:08:46;0.70;92.50
16040;DHT22;8124;48.634;8.120;2023-02-26T23:13:49;0.70;92.70
16040;DHT22;8124;48.634;8.120;2023-02-26T23:18:53;0.70;93.10
16040;DHT22;8124;48.634;8.120;2023-02-26T23:23:57;0.70;93.30
16040;DHT22;8124;48.634;8.120;2023-02-26T23:29:00;0.60;93.60
16040;DHT22;8124;48.634;8.120;2023-02-26T23:34:04;0.60;93.90
16040;DHT22;8124;48.634;8.120;2023-02-26T23:39:08;0.60;94.40
16040;DHT22;8124;48.634;8.120;2023-02-26T23:44:10;0.60;94.90
16040;DHT22;8124;48.634;8.120;2023-02-26T23:49:15;0.70;95.30
16040;DHT22;8124;48.634;8.120;2023-02-26T23:54:17;0.70;95.50
16040;DHT22;8124;48.634;8.120;2023-02-26T23:59:20;0.60;95.80
